createdAt,value
2023-03-06T00:02:57.003Z,52.17
2023-03-06T00:06:04.189Z,27.91
2023-03-06T00:09:10.754Z,28.13
2023-03-06T00:12:17.526Z,40.24
2023-03-06T00:15:24.255Z,32.13
2023-03-06T00:18:33.672Z,34.99
2023-03-06T00:21:39.664Z,37.80
2023-03-06T00:24:47.317Z,39.81
2023-03-06T00:27:53.937Z,67.45
2023-03-06T00:31:01.423Z,46.70
2023-03-06T00:34:11.750Z,34.46
2023-03-06T00:37:19.325Z,34.21
2023-03-06T00:40:25.564Z,34.69
2023-03-06T00:43:33.025Z,35.10
2023-03-06T00:46:39.379Z,35.25
2023-03-06T00:49:48.735Z,34.09
2023-03-06T00:52:54.609Z,32.90
2023-03-06T00:56:01.263Z,30.84
2023-03-06T00:59:08.674Z,32.37
2023-03-06T01:02:15.612Z,33.96
2023-03-06T01:05:24.979Z,36.32
2023-03-06T01:08:31.704Z,39.64
2023-03-06T01:11:37.474Z,41.69
2023-03-06T01:14:44.182Z,43.72
2023-03-06T01:17:50.199Z,42.33
2023-03-06T01:20:59.369Z,42.29
2023-03-06T01:24:05.182Z,45.24
2023-03-06T01:27:12.192Z,46.92
2023-03-06T01:30:18.578Z,51.08
2023-03-06T01:33:25.467Z,54.40
2023-03-06T01:36:33.945Z,50.92
2023-03-06T01:39:42.488Z,50.52
2023-03-06T01:42:48.343Z,50.09
2023-03-06T01:46:42.395Z,48.69
2023-03-06T01:49:48.261Z,47.80
2023-03-06T01:53:03.985Z,46.82
2023-03-06T01:56:11.171Z,47.37
2023-03-06T01:59:19.479Z,49.27
2023-03-06T02:02:25.966Z,52.76
2023-03-06T02:05:32.848Z,55.10
2023-03-06T02:08:43.107Z,55.68
2023-03-06T02:11:49.833Z,56.31
2023-03-06T02:14:56.783Z,51.09
2023-03-06T02:18:04.176Z,49.34
2023-03-06T02:21:13.171Z,47.77
2023-03-06T02:24:40.522Z,53.16
2023-03-06T02:27:49.241Z,49.56
2023-03-06T02:30:59.940Z,41.47
2023-03-06T02:34:31.202Z,39.87
2023-03-06T02:37:37.879Z,39.84
2023-03-06T02:40:49.978Z,38.76
2023-03-06T02:43:59.361Z,39.95
2023-03-06T02:47:05.230Z,40.62
2023-03-06T02:50:13.647Z,37.49
2023-03-06T02:53:22.541Z,37.72
2023-03-06T02:56:29.133Z,38.50
2023-03-06T02:59:38.775Z,38.36
2023-03-06T03:02:47.057Z,38.24
2023-03-06T03:05:52.949Z,39.45
2023-03-06T03:09:04.070Z,40.44
2023-03-06T03:12:11.365Z,40.50
2023-03-06T03:15:22.124Z,45.44
2023-03-06T03:18:27.893Z,46.52
2023-03-06T03:21:34.755Z,44.67
2023-03-06T03:24:40.641Z,39.78
2023-03-06T03:27:47.445Z,38.23
2023-03-06T03:30:55.978Z,39.41
2023-03-06T03:34:04.844Z,40.42
2023-03-06T03:37:14.169Z,43.06
2023-03-06T03:40:22.696Z,42.30
2023-03-06T03:43:29.988Z,41.89
2023-03-06T03:46:41.371Z,44.18
2023-03-06T03:49:52.152Z,41.79
2023-03-06T03:53:00.225Z,40.38
2023-03-06T03:56:06.837Z,38.25
2023-03-06T03:59:18.819Z,36.95
2023-03-06T04:02:38.148Z,35.28
2023-03-06T04:05:54.107Z,34.58
2023-03-06T04:09:00.434Z,34.19
2023-03-06T04:12:08.960Z,34.10
2023-03-06T04:15:16.302Z,33.56
2023-03-06T04:18:27.487Z,37.87
2023-03-06T04:21:37.900Z,42.33
2023-03-06T04:24:45.785Z,39.32
2023-03-06T04:27:52.361Z,35.97
2023-03-06T04:30:59.135Z,39.93
2023-03-06T04:34:07.873Z,51.48
2023-03-06T04:37:24.283Z,38.86
2023-03-06T04:40:34.805Z,37.28
2023-03-06T04:43:41.807Z,36.93
2023-03-06T04:46:47.610Z,40.38
2023-03-06T04:49:56.964Z,43.04
2023-03-06T04:53:04.929Z,44.14
2023-03-06T04:56:12.070Z,41.36
2023-03-06T04:59:17.841Z,36.81
2023-03-06T05:02:24.862Z,34.09
2023-03-06T05:05:33.983Z,34.18
2023-03-06T05:08:40.544Z,34.67
2023-03-06T05:11:46.312Z,34.83
2023-03-06T05:14:52.925Z,29.89
2023-03-06T05:17:58.700Z,28.63
2023-03-06T05:21:09.303Z,28.87
2023-03-06T05:24:15.206Z,29.75
2023-03-06T05:27:21.893Z,28.35
2023-03-06T05:30:28.146Z,32.62
2023-03-06T05:33:35.516Z,35.05
2023-03-06T05:36:44.635Z,37.58
2023-03-06T05:39:51.306Z,36.68
2023-03-06T05:42:57.071Z,37.32
2023-03-06T05:46:05.725Z,37.18
2023-03-06T05:49:11.848Z,37.46
2023-03-06T05:52:21.494Z,36.10
2023-03-06T05:55:29.801Z,32.00
2023-03-06T05:58:38.022Z,30.82
2023-03-06T06:01:43.964Z,30.58
2023-03-06T06:04:51.268Z,30.23
2023-03-06T06:07:59.650Z,29.99
2023-03-06T06:11:12.322Z,29.58
2023-03-06T06:14:31.220Z,29.38
2023-03-06T06:23:26.874Z,32.21
2023-03-06T06:27:10.552Z,31.89
2023-03-06T06:30:48.847Z,32.00
2023-03-06T06:34:25.987Z,34.43
2023-03-06T06:38:05.998Z,35.17
2023-03-06T06:42:11.026Z,35.91
2023-03-06T06:45:34.549Z,34.43
2023-03-06T06:48:41.127Z,38.62
2023-03-06T06:51:47.029Z,39.91
2023-03-06T06:54:53.853Z,38.26
2023-03-06T06:58:02.225Z,38.66
2023-03-06T07:01:10.329Z,37.91
2023-03-06T07:04:16.920Z,35.84
2023-03-06T07:07:25.416Z,33.19
2023-03-06T07:10:32.052Z,30.87
2023-03-06T07:13:41.623Z,29.01
2023-03-06T07:16:47.364Z,28.28
2023-03-06T07:19:53.996Z,27.13
2023-03-06T07:22:59.830Z,27.67
2023-03-06T07:26:07.060Z,26.51
2023-03-06T07:29:15.494Z,27.00
2023-03-06T07:32:22.089Z,27.64
2023-03-06T07:35:29.894Z,27.21
2023-03-06T07:38:36.570Z,29.16
2023-03-06T07:41:42.420Z,29.67
2023-03-06T07:44:51.650Z,28.57
2023-03-06T07:47:57.826Z,26.69
2023-03-06T07:51:10.282Z,27.20
2023-03-06T07:54:16.193Z,28.63
2023-03-06T07:57:22.929Z,27.92
2023-03-06T08:00:31.495Z,29.01
2023-03-06T08:03:41.364Z,29.21
2023-03-06T08:06:47.134Z,25.42
2023-03-06T08:09:53.946Z,26.52
2023-03-06T08:13:00.021Z,25.47
2023-03-06T08:16:10.674Z,23.45
2023-03-06T08:19:16.518Z,21.79
2023-03-06T08:22:23.884Z,21.29
2023-03-06T08:25:29.742Z,21.88
2023-03-06T08:28:37.022Z,22.43
2023-03-06T08:31:48.663Z,21.85
2023-03-06T08:34:56.131Z,20.13
2023-03-06T08:38:02.045Z,19.13
2023-03-06T08:41:08.841Z,17.99
2023-03-06T08:44:15.667Z,18.18
2023-03-06T08:47:24.915Z,19.03
2023-03-06T08:50:30.862Z,18.73
2023-03-06T08:53:43.084Z,18.29
2023-03-06T08:56:49.527Z,18.28
2023-03-06T08:59:56.079Z,18.07
2023-03-06T09:03:04.584Z,16.75
2023-03-06T09:06:11.262Z,17.86
2023-03-06T09:09:18.291Z,17.44
2023-03-06T09:12:24.031Z,15.54
2023-03-06T09:15:30.690Z,15.63
2023-03-06T09:18:39.659Z,16.49
2023-03-06T09:21:46.280Z,16.61
2023-03-06T09:24:52.659Z,15.19
2023-03-06T09:28:10.890Z,14.94
2023-03-06T09:31:21.786Z,15.81
2023-03-06T09:34:31.007Z,15.32
2023-03-06T09:37:37.247Z,16.47
2023-03-06T09:44:21.492Z,16.97
2023-03-06T09:47:50.595Z,17.48
2023-03-06T09:51:13.128Z,18.06
2023-03-06T09:54:24.064Z,16.77
2023-03-06T09:57:36.252Z,16.85
2023-03-06T10:00:54.442Z,15.07
2023-03-06T10:04:27.094Z,15.12
2023-03-06T10:07:49.895Z,16.19
2023-03-06T10:11:05.707Z,18.26
2023-03-06T10:14:26.763Z,17.57
2023-03-06T10:17:41.648Z,16.69
2023-03-06T10:21:16.978Z,14.31
2023-03-06T10:24:56.232Z,14.31
2023-03-06T10:28:18.562Z,13.62
2023-03-06T10:31:29.419Z,12.76
2023-03-06T10:34:44.379Z,11.89
2023-03-06T10:37:51.902Z,13.32
2023-03-06T10:41:19.609Z,11.11
2023-03-06T10:44:29.110Z,10.81
2023-03-06T10:47:37.765Z,11.75
2023-03-06T10:50:43.771Z,10.81
2023-03-06T10:53:58.996Z,9.78
2023-03-06T10:57:32.891Z,9.71
2023-03-06T11:00:39.679Z,9.93
2023-03-06T11:03:45.706Z,10.09
2023-03-06T11:07:08.480Z,10.40
2023-03-06T11:10:23.832Z,9.91
2023-03-06T11:13:36.178Z,10.71
2023-03-06T11:16:42.746Z,8.61
2023-03-06T11:19:49.417Z,9.17
2023-03-06T11:23:03.209Z,8.34
2023-03-06T11:26:32.596Z,9.67
2023-03-06T11:29:46.294Z,10.57
2023-03-06T11:33:02.026Z,10.79
2023-03-06T11:36:21.553Z,12.31
2023-03-06T11:39:39.836Z,10.55
2023-03-06T11:42:59.102Z,10.66
2023-03-06T11:46:22.977Z,8.54
2023-03-06T11:49:41.479Z,7.42
2023-03-06T11:52:56.743Z,11.18
2023-03-06T11:56:23.025Z,11.10
2023-03-06T12:00:24.301Z,9.18
2023-03-06T12:04:16.753Z,10.36
2023-03-06T12:07:35.085Z,9.93
2023-03-06T12:10:52.441Z,8.88
2023-03-06T12:14:25.887Z,8.52
2023-03-06T12:17:57.857Z,7.31
2023-03-06T12:21:23.375Z,6.30
2023-03-06T12:25:21.294Z,5.90
2023-03-06T12:29:05.608Z,7.15
2023-03-06T12:32:30.651Z,7.44
2023-03-06T12:36:17.114Z,7.45
2023-03-06T12:39:45.047Z,6.75
2023-03-06T12:43:40.587Z,5.57
2023-03-06T12:46:54.888Z,6.50
2023-03-06T12:50:10.471Z,7.09
2023-03-06T12:53:30.500Z,8.11
2023-03-06T12:56:38.758Z,6.80
2023-03-06T12:59:48.837Z,7.49
2023-03-06T13:03:21.589Z,7.93
2023-03-06T13:07:05.688Z,8.36
2023-03-06T13:10:25.668Z,9.35
2023-03-06T13:13:37.227Z,9.85
2023-03-06T13:16:43.898Z,10.47
2023-03-06T13:19:50.902Z,10.38
2023-03-06T13:22:57.836Z,9.40
2023-03-06T13:26:12.783Z,10.32
2023-03-06T13:29:55.762Z,11.30
2023-03-06T13:33:01.639Z,19.09
2023-03-06T13:36:27.096Z,24.39
2023-03-06T13:40:29.625Z,11.57
2023-03-06T13:43:45.665Z,11.40
2023-03-06T13:47:02.740Z,10.75
2023-03-06T13:50:38.382Z,10.70
2023-03-06T13:54:30.742Z,11.45
2023-03-06T13:58:04.076Z,12.52
2023-03-06T14:01:43.070Z,12.87
2023-03-06T14:05:00.743Z,12.63
2023-03-06T14:08:17.564Z,14.14
2023-03-06T14:11:25.026Z,15.24
2023-03-06T14:14:45.442Z,13.31
2023-03-06T14:18:03.433Z,18.46
2023-03-06T14:21:15.990Z,10.18
2023-03-06T14:24:34.562Z,8.42
2023-03-06T14:27:56.325Z,10.59
2023-03-06T14:31:08.849Z,12.26
2023-03-06T14:34:26.758Z,13.50
2023-03-06T14:37:35.094Z,11.61
2023-03-06T14:40:48.624Z,12.95
2023-03-06T14:44:10.022Z,17.93
2023-03-06T14:47:28.722Z,21.63
2023-03-06T14:50:41.021Z,21.07
2023-03-06T14:53:49.847Z,14.86
2023-03-06T14:57:06.144Z,12.93
2023-03-06T15:00:24.199Z,13.19
2023-03-06T15:03:45.416Z,14.37
2023-03-06T15:06:56.925Z,12.61
2023-03-06T15:10:10.535Z,12.94
2023-03-06T15:13:26.268Z,13.35
2023-03-06T15:16:34.973Z,13.72
2023-03-06T15:19:43.380Z,15.20
2023-03-06T15:22:54.165Z,18.80
2023-03-06T15:26:03.898Z,17.40
2023-03-06T15:29:26.665Z,25.81
2023-03-06T15:32:42.619Z,18.82
2023-03-06T15:35:58.924Z,22.08
2023-03-06T15:39:41.354Z,28.15
2023-03-06T15:42:50.120Z,20.23
2023-03-06T15:46:03.580Z,30.20
2023-03-06T15:49:20.768Z,30.20
2023-03-06T15:52:27.536Z,38.15
2023-03-06T15:55:36.885Z,30.77
2023-03-06T15:58:44.777Z,28.35
2023-03-06T16:01:53.244Z,31.95
2023-03-06T16:05:02.558Z,33.24
2023-03-06T16:08:11.030Z,32.51
2023-03-06T16:11:35.340Z,29.54
2023-03-06T16:14:50.757Z,35.58
2023-03-06T16:17:56.747Z,55.18
2023-03-06T16:21:03.597Z,42.98
2023-03-06T16:24:09.865Z,48.65
2023-03-06T16:27:25.719Z,49.42
2023-03-06T16:30:35.704Z,45.49
2023-03-06T16:33:42.596Z,65.27
2023-03-06T16:36:50.299Z,95.41
2023-03-06T16:39:56.840Z,497.25
2023-03-06T16:43:05.278Z,1544.12
2023-03-06T16:46:20.612Z,1113.62
2023-03-06T16:49:27.953Z,930.11
2023-03-06T16:52:34.871Z,1530.58
2023-03-06T16:55:40.808Z,849.28
2023-03-06T16:58:52.023Z,332.70
2023-03-06T17:01:57.855Z,150.96
2023-03-06T17:05:04.644Z,152.61
2023-03-06T17:08:10.670Z,99.84
2023-03-06T17:11:18.118Z,101.77
2023-03-06T17:14:26.591Z,189.41
2023-03-06T17:17:33.237Z,88.25
2023-03-06T17:20:39.085Z,91.80
2023-03-06T17:23:47.042Z,37.69
2023-03-06T17:26:53.048Z,38.12
2023-03-06T17:30:04.480Z,42.35
2023-03-06T17:33:10.312Z,39.72
2023-03-06T17:36:19.548Z,42.88
2023-03-06T17:39:26.027Z,35.75
2023-03-06T17:42:32.689Z,37.65
2023-03-06T17:45:41.999Z,28.26
2023-03-06T17:48:49.655Z,26.21
2023-03-06T17:51:56.640Z,30.18
2023-03-06T17:55:03.203Z,28.68
2023-03-06T18:01:21.641Z,31.16
2023-03-06T18:04:28.661Z,34.73
2023-03-06T18:07:34.476Z,36.31
2023-03-06T18:10:43.514Z,35.75
2023-03-06T18:13:49.323Z,47.35
2023-03-06T18:16:58.508Z,286.10
2023-03-06T18:20:04.627Z,443.76
2023-03-06T18:23:11.903Z,143.49
2023-03-06T18:26:21.007Z,45.39
2023-03-06T18:29:27.711Z,139.62
2023-03-06T18:32:36.212Z,52.00
2023-03-06T18:35:44.214Z,39.32
2023-03-06T18:38:50.190Z,38.99
2023-03-06T18:41:56.896Z,120.71
2023-03-06T18:45:03.236Z,121.04
2023-03-06T18:48:12.575Z,74.49
2023-03-06T18:51:20.376Z,35.74
2023-03-06T18:54:28.748Z,31.75
2023-03-06T18:57:34.595Z,37.09
2023-03-06T19:00:41.218Z,33.39
2023-03-06T19:03:53.133Z,29.68
2023-03-06T19:06:59.845Z,29.95
2023-03-06T19:10:06.149Z,29.10
2023-03-06T19:13:14.225Z,30.22
2023-03-06T19:16:23.266Z,32.33
2023-03-06T19:19:32.721Z,33.19
2023-03-06T19:22:38.601Z,34.19
2023-03-06T19:25:45.437Z,33.42
2023-03-06T19:28:56.570Z,33.60
2023-03-06T19:32:04.428Z,34.79
2023-03-06T19:35:13.850Z,37.20
2023-03-06T19:38:21.026Z,37.12
2023-03-06T19:41:28.157Z,39.13
2023-03-06T19:44:35.692Z,37.29
2023-03-06T19:47:41.682Z,38.13
2023-03-06T19:50:52.464Z,40.98
2023-03-06T19:53:59.817Z,38.90
2023-03-06T19:57:06.870Z,36.42
2023-03-06T20:00:16.228Z,36.47
2023-03-06T20:03:22.863Z,37.87
2023-03-06T20:06:36.809Z,37.43
2023-03-06T20:09:44.025Z,38.33
2023-03-06T20:12:55.144Z,38.00
2023-03-06T20:16:06.292Z,36.43
2023-03-06T20:19:13.924Z,35.39
2023-03-06T20:22:23.598Z,36.19
2023-03-06T20:25:29.989Z,37.68
2023-03-06T20:28:38.077Z,36.88
2023-03-06T20:31:45.627Z,38.16
2023-03-06T20:34:55.369Z,38.50
2023-03-06T20:38:04.151Z,35.48
2023-03-06T20:41:18.573Z,35.39
2023-03-06T20:44:24.405Z,37.66
2023-03-06T20:47:32.883Z,43.62
2023-03-06T20:50:39.022Z,55.27
2023-03-06T20:53:50.838Z,57.05
2023-03-06T20:56:58.235Z,49.51
2023-03-06T21:00:05.412Z,44.47
2023-03-06T21:03:11.355Z,51.98
2023-03-06T21:06:18.907Z,46.39
2023-03-06T21:09:27.268Z,44.03
2023-03-06T21:12:36.429Z,47.23
2023-03-06T21:15:42.702Z,47.71
2023-03-06T21:18:50.277Z,42.55
2023-03-06T21:21:56.328Z,40.74
2023-03-06T21:25:05.558Z,38.63
2023-03-06T21:28:11.307Z,37.65
2023-03-06T21:31:22.197Z,38.10
2023-03-06T21:34:28.347Z,38.70
2023-03-06T21:37:35.283Z,40.16
2023-03-06T21:40:45.525Z,40.30
2023-03-06T21:43:52.106Z,40.12
2023-03-06T21:46:57.796Z,37.32
2023-03-06T21:50:04.352Z,35.60
2023-03-06T21:53:12.463Z,40.32
2023-03-06T21:56:25.486Z,40.37
2023-03-06T21:59:31.425Z,42.40
2023-03-06T22:02:38.500Z,44.80
2023-03-06T22:05:44.786Z,45.58
2023-03-06T22:08:51.855Z,46.46
2023-03-06T22:12:00.393Z,45.99
2023-03-06T22:15:09.560Z,45.56
2023-03-06T22:18:16.054Z,43.54
2023-03-06T22:21:26.057Z,41.88
2023-03-06T22:24:31.881Z,41.94
2023-03-06T22:27:41.152Z,42.84
2023-03-06T22:30:46.891Z,41.40
2023-03-06T22:33:55.343Z,40.39
2023-03-06T22:37:01.328Z,41.26
2023-03-06T22:40:09.809Z,41.06
2023-03-06T22:43:20.164Z,41.94
2023-03-06T22:46:27.974Z,44.00
2023-03-06T22:49:33.818Z,43.51
2023-03-06T22:52:40.460Z,42.93
2023-03-06T22:55:46.272Z,42.55
2023-03-06T22:58:55.585Z,40.88
2023-03-06T23:02:01.441Z,35.40
2023-03-06T23:05:09.833Z,33.77
2023-03-06T23:08:17.307Z,32.58
2023-03-06T23:11:26.001Z,33.25
2023-03-06T23:14:53.182Z,33.22
2023-03-06T23:18:18.213Z,34.36
2023-03-06T23:21:43.028Z,38.95
2023-03-06T23:25:09.745Z,41.37
2023-03-06T23:28:15.801Z,42.70
2023-03-06T23:31:28.737Z,42.99
2023-03-06T23:34:34.746Z,46.27
2023-03-06T23:37:42.830Z,46.26
2023-03-06T23:40:49.755Z,44.74
2023-03-06T23:43:56.642Z,43.89
2023-03-06T23:47:05.651Z,43.14
2023-03-06T23:50:14.203Z,43.52
2023-03-06T23:53:20.645Z,42.66
2023-03-06T23:56:27.920Z,44.45
2023-03-06T23:59:33.764Z,44.56
